Time;durP1;ratioP1;P1;durP2;ratioP2;P2;SDS_P1;SDS_P2;PMS_P1;PMS_P2;Temp;Humidity;BMP_temperature;BMP_pressure;BME280_temperature;BME280_humidity;BME280_pressure;Samples;Min_cycle;Max_cycle;Signal;HPM_P1;HPM_P2
2023/03/10 00:00:17;;;;;;;10.60;6.43;;;;;;;;;;6242128;28;20199;-67
2023/03/10 00:03:18;;;;;;;6.77;5.37;;;;;;;;;;6245740;28;20278;-67
2023/03/10 00:06:20;;;;;;;4.57;4.00;;;;;;;;;;6232343;28;20196;-67
2023/03/10 00:09:21;;;;;;;5.70;3.20;;;;;;;;;;6249579;28;20191;-68
2023/03/10 00:12:26;;;;;;;4.50;2.67;;;;;;;;;;6246327;28;20226;-67
2023/03/10 00:15:27;;;;;;;2.93;2.00;;;;;;;;;;6238357;28;20203;-68
2023/03/10 00:18:28;;;;;;;3.93;1.70;;;;;;;;;;6241260;28;20217;-68
2023/03/10 00:21:31;;;;;;;3.77;1.90;;;;;;;;;;6235749;28;20285;-67
2023/03/10 00:24:32;;;;;;;1.97;1.63;;;;;;;;;;6244140;28;20241;-67
2023/03/10 00:27:33;;;;;;;3.70;2.00;;;;;;;;;;6226749;28;20198;-67
2023/03/10 00:30:34;;;;;;;2.93;1.93;;;;;;;;;;6248798;28;20243;-67
2023/03/10 00:33:35;;;;;;;2.93;1.80;;;;;;;;;;6240659;28;20190;-67
2023/03/10 00:36:36;;;;;;;2.90;2.20;;;;;;;;;;6247254;28;20237;-67
2023/03/10 00:39:37;;;;;;;3.80;2.10;;;;;;;;;;6246003;28;20249;-67
2023/03/10 00:42:38;;;;;;;4.17;1.87;;;;;;;;;;6225302;28;20210;-67
2023/03/10 00:45:39;;;;;;;2.13;1.37;;;;;;;;;;6231379;28;20194;-67
2023/03/10 00:48:40;;;;;;;2.13;1.60;;;;;;;;;;6223377;28;20202;-67
2023/03/10 00:51:41;;;;;;;3.63;2.03;;;;;;;;;;6242012;28;20285;-67
2023/03/10 00:54:43;;;;;;;3.70;1.70;;;;;;;;;;6227415;28;20289;-67
2023/03/10 00:57:44;;;;;;;7.57;2.77;;;;;;;;;;6244436;28;20214;-67
2023/03/10 01:00:45;;;;;;;6.20;2.77;;;;;;;;;;6228034;28;20213;-67
2023/03/10 01:03:46;;;;;;;7.37;2.83;;;;;;;;;;6229622;28;20190;-67
2023/03/10 01:06:47;;;;;;;6.43;3.80;;;;;;;;;;6241488;28;20198;-67
2023/03/10 01:09:48;;;;;;;7.40;3.37;;;;;;;;;;6225701;28;20198;-68
2023/03/10 01:12:49;;;;;;;9.13;4.23;;;;;;;;;;6224423;28;20203;-67
2023/03/10 01:15:50;;;;;;;6.27;3.47;;;;;;;;;;6230578;28;20193;-68
2023/03/10 01:18:52;;;;;;;7.67;3.43;;;;;;;;;;6228227;28;20215;-67
2023/03/10 01:21:53;;;;;;;7.50;3.30;;;;;;;;;;6246731;28;20205;-67
2023/03/10 01:24:54;;;;;;;7.60;2.87;;;;;;;;;;6245434;28;20186;-67
2023/03/10 01:27:55;;;;;;;10.83;3.40;;;;;;;;;;6248281;28;20198;-67
2023/03/10 01:30:56;;;;;;;6.63;3.40;;;;;;;;;;6224307;28;20201;-67
2023/03/10 01:33:57;;;;;;;7.93;3.80;;;;;;;;;;6235851;28;20245;-67
2023/03/10 01:36:58;;;;;;;6.33;3.00;;;;;;;;;;6236379;28;20292;-67
2023/03/10 01:39:59;;;;;;;7.90;3.40;;;;;;;;;;6248780;28;20191;-67
2023/03/10 01:43:19;;;;;;;9.37;3.40;;;;;;;;;;6251898;28;20286;-68
2023/03/10 01:46:23;;;;;;;11.60;3.80;;;;;;;;;;6242064;28;20205;-67
2023/03/10 01:49:30;;;;;;;11.17;3.30;;;;;;;;;;6251025;28;20191;-67
2023/03/10 01:52:32;;;;;;;5.07;3.00;;;;;;;;;;6245403;28;20237;-68
2023/03/10 01:55:35;;;;;;;5.53;2.00;;;;;;;;;;6248143;28;20220;-68
2023/03/10 01:58:39;;;;;;;3.13;1.77;;;;;;;;;;6251004;28;20242;-68
2023/03/10 02:01:40;;;;;;;3.37;2.43;;;;;;;;;;6245112;28;20188;-68
2023/03/10 02:04:43;;;;;;;3.47;2.20;;;;;;;;;;6249918;28;20190;-67
2023/03/10 02:07:44;;;;;;;2.90;1.70;;;;;;;;;;6248995;28;20191;-67
2023/03/10 02:10:46;;;;;;;3.07;1.90;;;;;;;;;;6251239;28;20206;-67
2023/03/10 02:13:47;;;;;;;3.43;2.33;;;;;;;;;;6251797;28;20197;-67
2023/03/10 02:16:48;;;;;;;5.43;1.93;;;;;;;;;;6228972;28;20253;-68
2023/03/10 02:20:05;;;;;;;3.87;1.90;;;;;;;;;;6231000;28;20218;-68
2023/03/10 02:23:10;;;;;;;5.97;2.10;;;;;;;;;;6245128;28;20187;-68
2023/03/10 02:26:20;;;;;;;2.83;1.80;;;;;;;;;;6232595;28;20256;-67
2023/03/10 02:29:32;;;;;;;2.73;1.83;;;;;;;;;;6246418;28;20256;-67
2023/03/10 02:32:35;;;;;;;3.20;1.60;;;;;;;;;;6251194;28;20219;-68
2023/03/10 02:35:36;;;;;;;2.20;1.70;;;;;;;;;;6250606;28;20242;-67
2023/03/10 02:38:37;;;;;;;2.40;1.70;;;;;;;;;;6249442;28;20213;-67
2023/03/10 02:41:39;;;;;;;3.47;1.50;;;;;;;;;;6233835;28;20194;-67
2023/03/10 02:44:40;;;;;;;2.83;1.70;;;;;;;;;;6227983;28;20198;-67
2023/03/10 02:47:41;;;;;;;2.60;2.23;;;;;;;;;;6249635;28;20195;-67
2023/03/10 02:50:43;;;;;;;3.47;2.03;;;;;;;;;;6241390;28;20199;-67
2023/03/10 02:53:44;;;;;;;3.33;1.80;;;;;;;;;;6229269;28;20265;-67
2023/03/10 02:56:45;;;;;;;3.23;1.83;;;;;;;;;;6224518;28;20190;-67
2023/03/10 02:59:46;;;;;;;3.50;1.50;;;;;;;;;;6231642;28;20222;-68
2023/03/10 03:02:47;;;;;;;3.83;1.87;;;;;;;;;;6251160;28;20194;-67
2023/03/10 03:05:48;;;;;;;3.73;1.97;;;;;;;;;;6244724;28;20195;-67
2023/03/10 03:08:49;;;;;;;3.53;2.23;;;;;;;;;;6231698;28;20240;-68
2023/03/10 03:11:50;;;;;;;3.90;2.07;;;;;;;;;;6228909;28;20209;-68
2023/03/10 03:14:52;;;;;;;2.73;1.57;;;;;;;;;;6242888;28;20187;-68
2023/03/10 03:17:53;;;;;;;5.20;1.67;;;;;;;;;;6234089;28;20242;-68
2023/03/10 03:20:54;;;;;;;2.47;1.77;;;;;;;;;;6242252;28;20244;-68
2023/03/10 03:23:55;;;;;;;5.63;1.73;;;;;;;;;;6228233;28;20206;-68
2023/03/10 03:26:57;;;;;;;3.63;2.47;;;;;;;;;;6233795;28;20190;-68
2023/03/10 03:29:59;;;;;;;2.17;1.60;;;;;;;;;;6246755;28;20274;-68
2023/03/10 03:33:02;;;;;;;2.50;1.50;;;;;;;;;;6247856;28;20281;-68
2023/03/10 03:36:03;;;;;;;3.17;1.73;;;;;;;;;;6247245;28;20325;-68
2023/03/10 03:39:05;;;;;;;2.77;1.80;;;;;;;;;;6240704;28;20230;-68
2023/03/10 03:42:07;;;;;;;4.23;2.27;;;;;;;;;;6242970;28;20266;-68
2023/03/10 03:45:09;;;;;;;3.77;1.90;;;;;;;;;;6235350;28;20229;-68
2023/03/10 03:48:12;;;;;;;2.20;1.90;;;;;;;;;;6231251;28;20286;-68
2023/03/10 03:51:13;;;;;;;3.07;2.30;;;;;;;;;;6242643;28;20199;-68
2023/03/10 03:54:14;;;;;;;3.13;2.10;;;;;;;;;;6249000;28;20199;-68
2023/03/10 03:57:15;;;;;;;4.47;2.10;;;;;;;;;;6227071;28;20287;-68
2023/03/10 04:00:18;;;;;;;3.13;1.93;;;;;;;;;;6232911;28;20190;-68
2023/03/10 04:03:19;;;;;;;4.80;1.97;;;;;;;;;;6248587;28;20197;-68
2023/03/10 04:06:20;;;;;;;3.00;2.00;;;;;;;;;;6224796;28;20191;-68
2023/03/10 04:09:21;;;;;;;3.60;2.20;;;;;;;;;;6231531;28;20261;-68
2023/03/10 04:12:24;;;;;;;3.50;2.13;;;;;;;;;;6228823;28;20202;-69
2023/03/10 04:15:25;;;;;;;5.10;2.57;;;;;;;;;;6238286;28;20195;-68
2023/03/10 04:18:26;;;;;;;3.80;3.00;;;;;;;;;;6244304;28;20206;-68
2023/03/10 04:21:28;;;;;;;3.03;2.07;;;;;;;;;;6247219;28;20195;-68
2023/03/10 04:24:29;;;;;;;5.13;2.10;;;;;;;;;;6241252;28;20206;-68
2023/03/10 04:27:30;;;;;;;2.40;2.07;;;;;;;;;;6235617;28;20198;-68
2023/03/10 04:30:31;;;;;;;3.30;2.33;;;;;;;;;;6235538;28;20270;-68
2023/03/10 04:33:32;;;;;;;3.43;1.90;;;;;;;;;;6223534;28;20195;-69
2023/03/10 04:36:33;;;;;;;2.30;1.90;;;;;;;;;;6236181;28;20253;-69
2023/03/10 04:39:36;;;;;;;4.57;2.20;;;;;;;;;;6223259;28;20219;-69
2023/03/10 04:42:37;;;;;;;4.87;2.80;;;;;;;;;;6234271;28;20242;-69
2023/03/10 04:45:38;;;;;;;2.77;1.80;;;;;;;;;;6221779;28;20247;-70
2023/03/10 04:48:39;;;;;;;3.77;2.00;;;;;;;;;;6242051;28;20194;-70
2023/03/10 04:51:40;;;;;;;2.70;1.80;;;;;;;;;;6228310;28;20201;-70
2023/03/10 04:54:42;;;;;;;2.70;1.90;;;;;;;;;;6237978;28;20202;-70
2023/03/10 04:57:43;;;;;;;2.53;1.80;;;;;;;;;;6246572;28;20305;-70
2023/03/10 05:00:44;;;;;;;3.03;1.73;;;;;;;;;;6224939;28;20202;-69
2023/03/10 05:03:45;;;;;;;5.73;2.07;;;;;;;;;;6238950;28;20193;-69
2023/03/10 05:06:49;;;;;;;4.83;2.23;;;;;;;;;;6221219;28;20191;-70
2023/03/10 05:09:50;;;;;;;2.73;1.90;;;;;;;;;;6254281;28;20241;-69
2023/03/10 05:12:51;;;;;;;2.57;1.97;;;;;;;;;;6229951;28;20195;-67
2023/03/10 05:15:52;;;;;;;6.07;2.50;;;;;;;;;;6224657;28;20198;-68
2023/03/10 05:18:53;;;;;;;4.70;2.53;;;;;;;;;;6251291;28;20222;-68
2023/03/10 05:21:55;;;;;;;4.93;1.90;;;;;;;;;;6240558;28;20183;-68
2023/03/10 05:24:56;;;;;;;2.40;1.87;;;;;;;;;;6241842;28;20212;-67
2023/03/10 05:27:57;;;;;;;3.53;2.03;;;;;;;;;;6226493;28;20198;-66
2023/03/10 05:30:58;;;;;;;4.40;2.20;;;;;;;;;;6230161;28;20195;-67
2023/03/10 05:33:59;;;;;;;3.77;2.03;;;;;;;;;;6231703;28;20258;-66
2023/03/10 05:37:00;;;;;;;4.13;2.30;;;;;;;;;;6224369;28;20198;-68
2023/03/10 05:40:02;;;;;;;3.27;2.07;;;;;;;;;;6221429;28;20194;-66
2023/03/10 05:43:03;;;;;;;2.87;2.00;;;;;;;;;;6231373;28;20190;-68
2023/03/10 05:46:05;;;;;;;2.80;2.10;;;;;;;;;;6224883;28;20212;-67
2023/03/10 05:49:06;;;;;;;4.53;2.30;;;;;;;;;;6237717;28;20193;-67
2023/03/10 05:52:07;;;;;;;3.33;2.30;;;;;;;;;;6243196;28;20194;-68
2023/03/10 05:55:10;;;;;;;4.07;2.00;;;;;;;;;;6236370;28;20183;-69
2023/03/10 05:58:11;;;;;;;2.27;1.80;;;;;;;;;;6235782;28;20256;-69
2023/03/10 06:01:13;;;;;;;5.20;2.27;;;;;;;;;;6225682;28;20198;-68
2023/03/10 06:04:14;;;;;;;3.63;2.17;;;;;;;;;;6241843;28;20309;-68
2023/03/10 06:07:15;;;;;;;4.13;2.17;;;;;;;;;;6220281;28;20195;-68
2023/03/10 06:10:16;;;;;;;2.80;2.33;;;;;;;;;;6226666;28;20218;-68
2023/03/10 06:13:19;;;;;;;3.70;1.97;;;;;;;;;;6225279;28;20190;-68
2023/03/10 06:16:20;;;;;;;3.00;1.70;;;;;;;;;;6226615;28;20306;-69
2023/03/10 06:19:21;;;;;;;4.40;2.00;;;;;;;;;;6219107;28;20214;-68
2023/03/10 06:22:22;;;;;;;2.53;2.10;;;;;;;;;;6248965;28;20183;-69
2023/03/10 06:25:23;;;;;;;4.23;2.00;;;;;;;;;;6232111;28;20262;-67
2023/03/10 06:28:25;;;;;;;2.60;2.03;;;;;;;;;;6240955;28;20191;-68
2023/03/10 06:31:26;;;;;;;4.67;2.53;;;;;;;;;;6245824;28;20197;-68
2023/03/10 06:34:27;;;;;;;5.80;3.17;;;;;;;;;;6249431;28;20261;-69
2023/03/10 06:37:28;;;;;;;5.30;2.73;;;;;;;;;;6241332;28;20297;-68
2023/03/10 06:40:29;;;;;;;5.27;2.73;;;;;;;;;;6227868;28;20221;-68
2023/03/10 06:43:31;;;;;;;4.20;2.57;;;;;;;;;;6212925;28;20197;-69
2023/03/10 06:46:32;;;;;;;6.23;3.17;;;;;;;;;;6244790;28;20201;-70
2023/03/10 06:49:34;;;;;;;5.60;2.83;;;;;;;;;;6227129;28;20206;-69
2023/03/10 06:52:35;;;;;;;5.27;2.70;;;;;;;;;;6223485;28;20207;-70
2023/03/10 06:55:36;;;;;;;5.67;3.30;;;;;;;;;;6238498;28;20205;-70
2023/03/10 06:58:37;;;;;;;6.10;2.87;;;;;;;;;;6245320;28;20210;-69
2023/03/10 07:01:39;;;;;;;4.97;3.07;;;;;;;;;;6233779;28;20192;-69
2023/03/10 07:04:40;;;;;;;3.97;2.33;;;;;;;;;;6236286;28;20205;-68
2023/03/10 07:07:41;;;;;;;4.63;2.70;;;;;;;;;;6227706;28;20194;-71
2023/03/10 07:10:42;;;;;;;3.83;2.73;;;;;;;;;;6234422;28;20355;-70
2023/03/10 07:13:43;;;;;;;5.37;3.30;;;;;;;;;;6234901;28;20224;-70
2023/03/10 07:16:45;;;;;;;5.07;2.83;;;;;;;;;;6250342;28;20196;-70
2023/03/10 07:19:46;;;;;;;6.57;4.03;;;;;;;;;;6232255;28;20210;-70
2023/03/10 07:22:47;;;;;;;6.27;3.50;;;;;;;;;;6227454;28;20202;-70
2023/03/10 07:25:55;;;;;;;5.80;3.60;;;;;;;;;;6215693;28;20194;-71
2023/03/10 07:28:57;;;;;;;7.20;4.17;;;;;;;;;;6241945;28;20195;-70
2023/03/10 07:31:58;;;;;;;5.43;3.80;;;;;;;;;;6221016;28;20190;-70
2023/03/10 07:34:59;;;;;;;5.27;3.60;;;;;;;;;;6239815;28;20255;-69
2023/03/10 07:38:00;;;;;;;8.70;4.37;;;;;;;;;;6246285;28;20222;-71
2023/03/10 07:41:01;;;;;;;7.30;3.97;;;;;;;;;;6224008;28;20580;-73
2023/03/10 07:44:02;;;;;;;6.23;3.87;;;;;;;;;;6224272;28;20197;-76
2023/03/10 07:47:03;;;;;;;10.60;4.80;;;;;;;;;;6262285;28;20190;-75
2023/03/10 07:50:04;;;;;;;6.97;3.77;;;;;;;;;;6230008;28;20194;-71
2023/03/10 07:53:05;;;;;;;5.63;3.37;;;;;;;;;;6226006;28;20245;-70
2023/03/10 07:56:07;;;;;;;6.53;3.00;;;;;;;;;;6222813;28;20529;-70
2023/03/10 07:59:08;;;;;;;5.83;3.53;;;;;;;;;;6248178;28;20218;-73
2023/03/10 08:02:11;;;;;;;5.10;3.10;;;;;;;;;;6228009;28;20217;-72
2023/03/10 08:05:13;;;;;;;6.23;3.03;;;;;;;;;;6245540;28;20187;-72
2023/03/10 08:08:15;;;;;;;7.17;3.17;;;;;;;;;;6238629;28;20201;-71
2023/03/10 08:11:16;;;;;;;4.80;3.40;;;;;;;;;;6235327;28;20195;-73
2023/03/10 08:14:18;;;;;;;5.40;3.23;;;;;;;;;;6210338;28;20205;-71
2023/03/10 08:17:19;;;;;;;6.70;3.60;;;;;;;;;;6223401;28;20195;-70
2023/03/10 08:20:20;;;;;;;8.50;3.20;;;;;;;;;;6227662;28;20245;-71
2023/03/10 08:23:21;;;;;;;8.00;3.43;;;;;;;;;;6231814;28;20186;-71
2023/03/10 08:26:22;;;;;;;5.40;3.53;;;;;;;;;;6229013;28;20186;-69
2023/03/10 08:29:23;;;;;;;5.70;3.43;;;;;;;;;;6247309;28;20241;-64
2023/03/10 08:32:24;;;;;;;5.90;3.47;;;;;;;;;;6239847;28;20210;-69
2023/03/10 08:35:25;;;;;;;6.13;3.60;;;;;;;;;;6226580;28;20303;-64
2023/03/10 08:38:26;;;;;;;6.93;3.80;;;;;;;;;;6245347;28;20225;-66
2023/03/10 08:41:29;;;;;;;5.97;3.43;;;;;;;;;;6228800;28;20196;-64
2023/03/10 08:44:30;;;;;;;10.57;3.50;;;;;;;;;;6239507;28;20191;-65
2023/03/10 08:47:31;;;;;;;6.80;3.60;;;;;;;;;;6223836;28;20193;-64
2023/03/10 08:50:32;;;;;;;6.60;3.73;;;;;;;;;;6216177;28;20197;-64
2023/03/10 08:53:34;;;;;;;4.37;3.30;;;;;;;;;;6227256;28;20265;-64
2023/03/10 08:56:35;;;;;;;4.40;3.73;;;;;;;;;;6235030;28;20224;-64
2023/03/10 08:59:36;;;;;;;5.90;3.67;;;;;;;;;;6227796;28;20232;-65
2023/03/10 09:02:38;;;;;;;5.30;3.57;;;;;;;;;;6221545;28;20213;-63
2023/03/10 09:05:39;;;;;;;4.27;3.60;;;;;;;;;;6241700;28;20193;-64
2023/03/10 09:08:40;;;;;;;5.93;4.30;;;;;;;;;;6238481;28;20206;-64
2023/03/10 09:11:41;;;;;;;6.67;4.37;;;;;;;;;;6227287;28;20199;-64
2023/03/10 09:14:42;;;;;;;10.37;4.53;;;;;;;;;;6230686;28;20194;-64
2023/03/10 09:17:43;;;;;;;8.47;3.97;;;;;;;;;;6222516;28;20207;-65
2023/03/10 09:20:45;;;;;;;6.57;3.90;;;;;;;;;;6227949;28;20190;-64
2023/03/10 09:23:47;;;;;;;5.60;3.63;;;;;;;;;;6236885;28;20217;-65
2023/03/10 09:26:48;;;;;;;6.67;3.90;;;;;;;;;;6239356;28;20209;-65
2023/03/10 09:29:49;;;;;;;8.87;4.20;;;;;;;;;;6227538;28;20292;-65
2023/03/10 09:32:51;;;;;;;5.47;3.57;;;;;;;;;;6221159;28;20219;-70
2023/03/10 09:35:52;;;;;;;6.80;4.00;;;;;;;;;;6217275;28;20241;-70
2023/03/10 09:38:53;;;;;;;7.27;3.60;;;;;;;;;;6223496;28;20301;-69
2023/03/10 09:42:08;;;;;;;7.70;4.43;;;;;;;;;;6194291;28;20234;-69
2023/03/10 09:45:27;;;;;;;6.80;4.17;;;;;;;;;;6232173;28;20196;-69
2023/03/10 09:48:28;;;;;;;6.57;3.87;;;;;;;;;;6253498;28;20216;-68
2023/03/10 09:51:30;;;;;;;7.73;4.27;;;;;;;;;;6249433;28;20277;-67
2023/03/10 09:54:57;;;;;;;6.97;3.77;;;;;;;;;;6216290;28;20211;-67
2023/03/10 09:57:59;;;;;;;9.00;3.83;;;;;;;;;;6238848;28;20219;-66
2023/03/10 10:01:00;;;;;;;7.87;4.10;;;;;;;;;;6241101;28;20199;-66
2023/03/10 10:04:07;;;;;;;8.00;3.70;;;;;;;;;;6223733;28;20195;-70
2023/03/10 10:07:16;;;;;;;4.27;3.77;;;;;;;;;;6246370;28;20190;-70
2023/03/10 10:10:18;;;;;;;9.80;4.17;;;;;;;;;;6247571;28;20194;-69
2023/03/10 10:13:22;;;;;;;11.60;4.10;;;;;;;;;;6247926;28;20214;-69
2023/03/10 10:16:38;;;;;;;6.97;3.63;;;;;;;;;;6246683;28;20209;-70
2023/03/10 10:19:39;;;;;;;7.63;4.00;;;;;;;;;;6232733;28;20207;-70
2023/03/10 10:22:44;;;;;;;9.73;4.27;;;;;;;;;;6234332;28;20216;-71
2023/03/10 10:25:45;;;;;;;9.17;4.67;;;;;;;;;;6242154;28;20183;-65
2023/03/10 10:28:49;;;;;;;6.37;4.60;;;;;;;;;;6238586;28;20207;-65
2023/03/10 10:32:04;;;;;;;6.60;4.37;;;;;;;;;;6238104;28;20196;-65
2023/03/10 10:35:13;;;;;;;8.10;4.53;;;;;;;;;;6246635;28;20315;-65
2023/03/10 10:38:14;;;;;;;9.27;3.70;;;;;;;;;;6264071;28;20286;-65
2023/03/10 10:41:20;;;;;;;9.67;3.53;;;;;;;;;;6248793;28;20189;-65
2023/03/10 10:44:21;;;;;;;6.50;3.30;;;;;;;;;;6241295;28;20195;-65
2023/03/10 10:47:26;;;;;;;7.60;3.27;;;;;;;;;;6233238;28;20263;-65
2023/03/10 10:50:32;;;;;;;7.50;3.33;;;;;;;;;;6248211;28;20215;-65
2023/03/10 10:53:42;;;;;;;5.97;3.70;;;;;;;;;;6241865;28;20202;-68
2023/03/10 10:56:51;;;;;;;6.57;3.43;;;;;;;;;;6240935;28;20326;-69
2023/03/10 10:59:53;;;;;;;6.10;3.83;;;;;;;;;;6245006;28;20207;-68
2023/03/10 11:02:54;;;;;;;6.40;3.73;;;10.10;48.70;;;;;;6224738;28;20196;-68
2023/03/10 11:05:55;;;;;;;8.20;3.93;;;;;;;;;;6235240;28;20239;-68
2023/03/10 11:09:08;;;;;;;7.60;3.87;;;;;;;;;;6246970;28;20211;-69
2023/03/10 11:12:29;;;;;;;6.17;3.10;;;;;;;;;;6247318;28;20202;-68
2023/03/10 11:15:30;;;;;;;5.67;3.27;;;;;;;;;;6247081;28;20239;-64
2023/03/10 11:18:58;;;;;;;5.63;2.93;;;;;;;;;;6235091;28;20211;-65
2023/03/10 11:22:31;;;;;;;7.93;3.07;;;;;;;;;;6229644;28;20199;-65
2023/03/10 11:25:39;;;;;;;5.80;3.10;;;;;;;;;;6201432;28;20194;-66
2023/03/10 11:28:52;;;;;;;6.57;3.40;;;;;;;;;;6237434;28;20199;-66
2023/03/10 11:31:59;;;;;;;7.03;3.13;;;;;;;;;;6262314;28;20199;-64
2023/03/10 11:35:06;;;;;;;6.63;3.40;;;;;;;;;;6243594;28;20235;-65
2023/03/10 11:38:18;;;;;;;6.87;3.80;;;;;;;;;;6237505;28;20249;-65
2023/03/10 11:41:27;;;;;;;9.43;3.20;;;;;;;;;;6249278;28;20195;-65
2023/03/10 11:44:35;;;;;;;7.10;3.20;;;;;;;;;;6241452;28;20184;-66
2023/03/10 11:47:39;;;;;;;6.57;3.30;;;14.30;52.90;;;;;;6241019;28;20222;-66
2023/03/10 11:50:58;;;;;;;5.07;2.60;;;15.40;51.00;;;;;;6247204;28;20196;-66
2023/03/10 11:54:03;;;;;;;5.63;2.80;;;15.30;51.50;;;;;;6244071;28;20206;-67
2023/03/10 11:57:14;;;;;;;8.13;3.53;;;15.30;50.70;;;;;;6244966;28;20203;-64
2023/03/10 12:00:24;;;;;;;7.80;3.93;;;15.40;50.70;;;;;;6242480;28;20218;-64
2023/03/10 12:03:39;;;;;;;8.07;3.33;;;15.40;50.50;;;;;;6246427;28;20245;-67
2023/03/10 12:06:52;;;;;;;8.00;3.17;;;15.40;50.70;;;;;;6238275;28;20195;-65
2023/03/10 12:10:00;;;;;;;6.83;3.10;;;15.40;49.80;;;;;;6238280;28;20275;-64
2023/03/10 12:13:03;;;;;;;5.33;2.97;;;15.40;50.40;;;;;;6243090;28;20187;-64
2023/03/10 12:16:05;;;;;;;6.93;3.10;;;15.40;50.60;;;;;;6229321;28;20194;-64
2023/03/10 12:19:06;;;;;;;5.33;2.80;;;15.40;50.70;;;;;;6235026;28;20272;-64
2023/03/10 12:22:24;;;;;;;3.53;2.60;;;15.40;50.00;;;;;;6230716;28;20194;-65
2023/03/10 12:25:27;;;;;;;5.60;2.83;;;15.40;49.80;;;;;;6233689;28;20192;-65
2023/03/10 12:28:28;;;;;;;5.37;2.97;;;15.30;49.40;;;;;;6242642;28;20194;-65
2023/03/10 12:31:38;;;;;;;9.70;3.13;;;15.30;49.70;;;;;;6204833;28;20194;-65
2023/03/10 12:34:39;;;;;;;7.63;3.17;;;15.20;49.70;;;;;;6235008;28;20329;-66
2023/03/10 12:37:39;;;;;;;8.77;4.03;;;15.30;49.00;;;;;;6229396;28;20305;-65
2023/03/10 12:40:47;;;;;;;6.17;3.47;;;15.30;48.20;;;;;;6220351;28;20191;-67
2023/03/10 12:43:54;;;;;;;7.13;3.50;;;15.30;49.40;;;;;;6209906;28;20290;-67
2023/03/10 12:47:12;;;;;;;6.27;3.20;;;15.30;48.20;;;;;;6224432;28;20191;-65
2023/03/10 12:50:35;;;;;;;5.60;2.90;;;15.30;48.60;;;;;;6244594;28;20187;-67
2023/03/10 12:53:56;;;;;;;4.57;3.03;;;15.50;48.40;;;;;;6244754;28;20230;-67
2023/03/10 12:57:20;;;;;;;6.50;3.00;;;15.80;47.30;;;;;;6242279;28;20193;-68
2023/03/10 13:00:33;;;;;;;8.70;3.20;;;16.10;47.20;;;;;;6249325;28;20208;-65
2023/03/10 13:03:49;;;;;;;5.87;2.70;;;16.50;46.30;;;;;;6237550;28;20219;-66
2023/03/10 13:06:55;;;;;;;5.53;3.20;;;;;;;;;;6246161;28;20226;-66
2023/03/10 13:09:57;;;;;;;5.17;2.83;;;;;;;;;;6244036;28;20179;-66
2023/03/10 13:13:03;;;;;;;4.97;2.20;;;;;;;;;;6229325;28;20202;-68
2023/03/10 13:16:06;;;;;;;3.63;2.40;;;;;;;;;;6240930;28;20191;-69
2023/03/10 13:19:07;;;;;;;3.63;2.60;;;;;;;;;;6240748;28;20225;-69
2023/03/10 13:22:16;;;;;;;6.27;2.53;;;;;;;;;;6237879;28;20233;-68
2023/03/10 13:25:17;;;;;;;4.67;2.37;;;;;;;;;;6235109;28;20219;-70
2023/03/10 13:28:18;;;;;;;6.40;2.80;;;;;;;;;;6226005;28;20191;-66
2023/03/10 13:31:20;;;;;;;5.73;2.60;;;;;;;;;;6231295;28;20198;-68
2023/03/10 13:34:22;;;;;;;5.20;2.50;;;;;;;;;;6235717;28;20227;-69
2023/03/10 13:37:24;;;;;;;5.60;2.63;;;;;;;;;;6233235;28;20268;-64
2023/03/10 13:40:25;;;;;;;4.10;2.83;;;;;;;;;;6244297;28;20188;-67
2023/03/10 13:43:35;;;;;;;3.67;2.03;;;;;;;;;;6250591;28;20197;-68
2023/03/10 13:46:36;;;;;;;3.60;2.70;;;;;;;;;;6235159;28;20246;-68
2023/03/10 13:49:37;;;;;;;7.03;2.80;;;;;;;;;;6219746;28;20212;-68
2023/03/10 13:52:56;;;;;;;7.87;3.00;;;16.90;46.00;;;;;;6230093;28;20255;-67
2023/03/10 13:55:56;;;;;;;5.33;2.70;;;20.30;36.30;;;;;;6234373;28;20195;-67
2023/03/10 13:58:58;;;;;;;9.63;3.27;;;20.00;36.40;;;;;;6244225;28;20234;-68
2023/03/10 14:02:00;;;;;;;4.07;2.60;;;19.40;36.50;;;;;;6228878;28;20217;-68
2023/03/10 14:05:02;;;;;;;3.90;2.50;;;19.20;36.70;;;;;;6227191;28;20198;-68
2023/03/10 14:08:04;;;;;;;6.77;3.10;;;18.60;37.10;;;;;;6240317;28;20913;-66
2023/03/10 14:11:34;;;;;;;3.70;2.80;;;18.30;38.00;;;;;;6229048;28;20208;-66
2023/03/10 14:14:37;;;;;;;4.30;2.40;;;18.10;38.70;;;;;;6243636;28;20270;-68
2023/03/10 14:17:38;;;;;;;6.37;2.70;;;18.00;39.30;;;;;;6222274;28;20195;-68
2023/03/10 14:20:43;;;;;;;5.37;2.67;;;18.20;39.00;;;;;;6214191;28;20210;-67
2023/03/10 14:23:44;;;;;;;5.57;2.77;;;18.00;39.40;;;;;;6239887;28;20263;-69
2023/03/10 14:26:45;;;;;;;4.03;2.57;;;17.80;40.50;;;;;;6245547;28;20201;-69
2023/03/10 14:29:49;;;;;;;7.67;3.30;;;17.70;38.90;;;;;;6223134;28;20198;-68
2023/03/10 14:32:51;;;;;;;4.97;2.73;;;17.50;39.80;;;;;;6234669;28;20213;-67
2023/03/10 14:35:52;;;;;;;3.00;2.47;;;17.20;40.60;;;;;;6226200;28;20247;-67
2023/03/10 14:38:52;;;;;;;4.70;2.70;;;16.60;42.50;;;;;;6231478;28;20377;-68
2023/03/10 14:41:53;;;;;;;7.07;2.90;;;16.00;49.10;;;;;;6228590;28;20198;-69
2023/03/10 14:44:54;;;;;;;10.50;3.40;;;15.10;54.30;;;;;;6220252;28;20238;-70
2023/03/10 14:47:57;;;;;;;6.10;3.17;;;14.30;61.20;;;;;;6214925;28;20250;-77
2023/03/10 14:50:58;;;;;;;5.57;3.20;;;13.30;65.00;;;;;;6237026;28;20290;-71
2023/03/10 14:53:59;;;;;;;9.67;3.47;;;12.50;64.20;;;;;;6226601;28;20205;-70
2023/03/10 14:56:59;;;;;;;4.67;2.57;;;12.00;70.90;;;;;;6225048;28;20190;-69
2023/03/10 15:00:00;;;;;;;6.80;3.63;;;11.50;74.00;;;;;;6223621;28;20311;-66
2023/03/10 15:03:01;;;;;;;6.77;3.43;;;11.00;81.60;;;;;;6249740;28;20195;-67
2023/03/10 15:06:01;;;;;;;5.17;3.30;;;10.40;87.90;;;;;;6215129;28;20210;-67
2023/03/10 15:09:02;;;;;;;7.10;4.13;;;10.00;90.40;;;;;;6221509;28;20194;-70
2023/03/10 15:12:03;;;;;;;7.07;5.27;;;9.80;91.00;;;;;;6224001;28;20233;-67
2023/03/10 15:15:05;;;;;;;8.37;5.23;;;9.60;92.40;;;;;;6213072;28;20198;-67
2023/03/10 15:18:06;;;;;;;9.40;5.20;;;9.50;92.60;;;;;;6243233;28;20242;-67
2023/03/10 15:21:07;;;;;;;8.20;4.30;;;9.50;93.70;;;;;;6217355;28;20237;-67
2023/03/10 15:24:08;;;;;;;5.40;4.30;;;9.50;94.30;;;;;;6233391;28;20214;-67
2023/03/10 15:27:12;;;;;;;5.37;3.97;;;9.40;94.70;;;;;;6224999;28;20205;-67
2023/03/10 15:30:34;;;;;;;8.70;4.40;;;9.40;94.80;;;;;;6248516;28;20186;-68
2023/03/10 15:33:35;;;;;;;5.83;4.53;;;9.40;95.20;;;;;;6227853;28;20503;-68
2023/03/10 15:36:36;;;;;;;6.40;4.63;;;9.40;95.00;;;;;;6195120;28;20238;-68
2023/03/10 15:39:37;;;;;;;7.83;6.07;;;9.40;94.40;;;;;;6236121;28;20223;-68
2023/03/10 15:42:38;;;;;;;8.90;6.37;;;9.40;94.90;;;;;;6247825;28;20194;-68
2023/03/10 15:45:49;;;;;;;9.43;6.13;;;9.60;96.00;;;;;;6242196;28;20194;-67
2023/03/10 15:48:50;;;;;;;6.07;5.47;;;;;;;;;;6246109;28;20191;-68
2023/03/10 15:51:51;;;;;;;4.87;3.83;;;;;;;;;;6225576;28;20286;-69
2023/03/10 15:54:52;;;;;;;2.90;2.57;;;;;;;;;;6249608;28;20206;-68
2023/03/10 15:57:53;;;;;;;3.60;1.90;;;10.00;97.70;;;;;;6248210;28;20222;-69
2023/03/10 16:00:54;;;;;;;2.83;2.20;;;13.60;85.10;;;;;;6231372;28;20264;-69
2023/03/10 16:03:55;;;;;;;4.33;2.50;;;13.70;83.40;;;;;;6225102;28;20202;-69
2023/03/10 16:06:55;;;;;;;2.80;2.03;;;13.90;83.30;;;;;;6228905;28;20193;-69
2023/03/10 16:09:56;;;;;;;2.20;1.73;;;;;;;;;;6230348;28;20202;-69
2023/03/10 16:12:58;;;;;;;3.93;2.80;;;13.90;83.70;;;;;;6229850;28;20324;-70
2023/03/10 16:16:04;;;;;;;6.20;3.80;;;13.90;82.90;;;;;;6229153;28;20202;-69
2023/03/10 16:19:04;;;;;;;4.93;3.50;;;13.70;80.80;;;;;;6224897;28;20227;-70
2023/03/10 16:22:06;;;;;;;6.43;3.60;;;13.40;83.60;;;;;;6215565;28;20198;-70
2023/03/10 16:25:10;;;;;;;4.00;3.13;;;13.10;83.40;;;;;;6247291;28;20190;-70
2023/03/10 16:28:11;;;;;;;5.57;4.00;;;12.90;81.30;;;;;;6243417;28;20561;-69
2023/03/10 16:31:14;;;;;;;4.40;3.87;;;12.70;80.70;;;;;;6241918;28;20205;-70
2023/03/10 16:34:15;;;;;;;7.10;4.40;;;12.40;83.40;;;;;;6247404;28;20187;-70
2023/03/10 16:37:16;;;;;;;6.90;4.60;;;12.00;83.90;;;;;;6221580;28;20205;-70
2023/03/10 16:40:16;;;;;;;6.87;3.77;;;11.70;87.10;;;;;;6208264;28;20214;-70
2023/03/10 16:43:18;;;;;;;5.80;4.43;;;11.50;87.00;;;;;;6238145;28;20192;-69
2023/03/10 16:46:24;;;;;;;5.03;4.53;;;11.30;88.10;;;;;;6222729;28;20191;-69
2023/03/10 16:49:26;;;;;;;6.67;5.00;;;;;;;;;;6239959;28;20199;-69
2023/03/10 16:52:27;;;;;;;8.27;6.20;;;;;;;;;;6247713;28;20198;-69
2023/03/10 16:55:28;;;;;;;7.43;6.03;;;;;;;;;;6231526;28;20218;-70
2023/03/10 16:58:29;;;;;;;7.37;5.20;;;;;;;;;;6227077;28;20222;-71
2023/03/10 17:01:30;;;;;;;5.50;4.67;;;;;;;;;;6230580;28;20190;-67
2023/03/10 17:04:32;;;;;;;5.20;4.17;;;;;;;;;;6239287;28;20187;-71
2023/03/10 17:07:33;;;;;;;4.97;3.90;;;;;;;;;;6247996;28;20193;-68
2023/03/10 17:10:34;;;;;;;6.87;4.07;;;11.00;88.50;;;;;;6246154;28;20197;-67
2023/03/10 17:13:35;;;;;;;4.27;3.87;;;9.20;90.50;;;;;;6231204;28;20222;-67
2023/03/10 17:16:37;;;;;;;5.13;4.63;;;9.00;91.20;;;;;;6223763;28;20187;-67
2023/03/10 17:19:37;;;;;;;6.90;5.13;;;8.80;91.70;;;;;;6235723;28;20217;-67
2023/03/10 17:22:39;;;;;;;5.27;4.77;;;;;;;;;;6211525;28;20191;-67
2023/03/10 17:25:43;;;;;;;8.17;6.87;;;8.60;92.30;;;;;;6247152;28;20186;-68
2023/03/10 17:28:47;;;;;;;9.60;8.70;;;8.40;93.00;;;;;;6234785;28;20190;-68
2023/03/10 17:31:50;;;;;;;9.00;7.50;;;8.30;93.20;;;;;;6245411;28;20198;-68
2023/03/10 17:34:52;;;;;;;7.77;6.23;;;;;;;;;;6224191;28;20243;-69
2023/03/10 17:37:53;;;;;;;7.07;5.03;;;;;;;;;;6237098;28;20215;-68